Time;durP1;ratioP1;P1;durP2;ratioP2;P2;SDS_P1;SDS_P2;PMS_P1;PMS_P2;Temp;Humidity;BMP_temperature;BMP_pressure;BME280_temperature;BME280_humidity;BME280_pressure;Samples;Min_cycle;Max_cycle;Signal;HPM_P1;HPM_P2
2023/07/02 00:01:21;;;;;;;5.10;2.75;;;;;;;;;;5058816;28;20108;-79
2023/07/02 00:03:47;;;;;;;3.85;2.35;;;;;;;;;;5047122;28;20056;-79
2023/07/02 00:06:17;;;;;;;4.10;2.20;;;;;;;;;;5038684;28;20080;-79
2023/07/02 00:08:44;;;;;;;4.10;2.30;;;;;;;;;;5038703;28;20499;-79
2023/07/02 00:11:12;;;;;;;3.95;2.63;;;;;;;;;;5039444;28;20045;-80
2023/07/02 00:13:42;;;;;;;4.68;2.70;;;;;;;;;;5040308;28;20041;-80
2023/07/02 00:16:08;;;;;;;3.42;2.15;;;;;;;;;;5038512;28;20114;-79
2023/07/02 00:18:35;;;;;;;5.18;2.40;;;;;;;;;;5039402;28;20103;-79
2023/07/02 00:21:03;;;;;;;4.03;2.45;;;;;;;;;;5038922;28;20067;-79
2023/07/02 00:23:31;;;;;;;4.70;2.33;;;;;;;;;;5059021;28;20045;-79
2023/07/02 00:26:01;;;;;;;4.88;2.25;;;;;;;;;;5057634;28;20049;-80
2023/07/02 00:28:27;;;;;;;3.95;2.53;;;;;;;;;;5057997;28;20419;-79
2023/07/02 00:30:54;;;;;;;4.63;2.30;;;;;;;;;;5059184;28;20049;-79
2023/07/02 00:33:21;;;;;;;3.65;2.25;;;;;;;;;;5058240;28;20053;-80
2023/07/02 00:35:47;;;;;;;4.57;2.42;;;;;;;;;;5058460;28;20143;-79
2023/07/02 00:38:14;;;;;;;3.90;2.30;;;;;;;;;;5058276;28;20411;-80
2023/07/02 00:40:42;;;;;;;3.60;2.35;;;;;;;;;;5057895;28;20143;-80
2023/07/02 00:43:12;;;;;;;3.75;2.25;;;;;;;;;;5046352;28;20415;-79
2023/07/02 00:45:39;;;;;;;4.10;2.60;;;;;;;;;;5037687;28;20045;-79
2023/07/02 00:48:06;;;;;;;4.88;2.03;;;;;;;;;;5048259;28;20103;-79
2023/07/02 00:50:33;;;;;;;3.78;2.00;;;;;;;;;;5046008;28;20053;-79
2023/07/02 00:53:00;;;;;;;4.28;2.92;;;;;;;;;;5041760;28;20050;-79
2023/07/02 00:55:26;;;;;;;4.22;2.35;;;;;;;;;;5043776;28;20049;-79
2023/07/02 00:57:56;;;;;;;3.60;2.00;;;;;;;;;;5048233;28;20049;-79
2023/07/02 01:00:23;;;;;;;4.00;2.20;;;;;;;;;;5063014;28;20060;-79
2023/07/02 01:02:57;;;;;;;3.67;1.90;;;;;;;;;;5046360;28;20060;-79
2023/07/02 01:05:23;;;;;;;3.72;2.00;;;;;;;;;;5044773;28;20176;-79
2023/07/02 01:07:50;;;;;;;4.18;2.08;;;;;;;;;;5044121;28;20072;-79
2023/07/02 01:10:17;;;;;;;3.60;1.70;;;;;;;;;;5044529;28;20193;-78
2023/07/02 01:12:44;;;;;;;3.35;1.63;;;;;;;;;;5044441;28;20108;-79
2023/07/02 01:15:13;;;;;;;3.95;1.90;;;;;;;;;;5043415;28;20088;-79
2023/07/02 01:17:41;;;;;;;4.15;1.83;;;;;;;;;;5057676;28;20080;-80
2023/07/02 01:20:11;;;;;;;2.60;1.50;;;;;;;;;;5062903;28;20118;-79
2023/07/02 01:22:38;;;;;;;2.70;1.60;;;;;;;;;;5060294;28;20501;-78
2023/07/02 01:25:08;;;;;;;2.83;1.60;;;;;;;;;;5059661;28;20147;-80
2023/07/02 01:27:35;;;;;;;2.95;1.63;;;;;;;;;;5059432;28;20045;-80
2023/07/02 01:30:02;;;;;;;3.22;1.45;;;;;;;;;;5057265;28;20060;-79
2023/07/02 01:32:29;;;;;;;2.38;1.30;;;;;;;;;;5055781;28;20063;-79
2023/07/02 01:34:56;;;;;;;2.15;1.27;;;;;;;;;;5055975;28;20595;-79
2023/07/02 01:37:24;;;;;;;3.30;1.45;;;;;;;;;;5059278;28;20045;-79
2023/07/02 01:39:50;;;;;;;2.40;1.30;;;;;;;;;;5058538;28;20099;-79
2023/07/02 01:42:19;;;;;;;2.58;1.20;;;;;;;;;;5055725;28;20068;-79
2023/07/02 01:44:47;;;;;;;3.17;1.30;;;;;;;;;;5055022;28;20565;-78
2023/07/02 01:47:15;;;;;;;2.72;1.88;;;;;;;;;;5055176;28;20053;-79
2023/07/02 01:49:42;;;;;;;2.78;1.40;;;;;;;;;;5055552;28;20048;-79
2023/07/02 01:52:09;;;;;;;2.50;1.50;;;;;;;;;;5055569;28;20045;-79
2023/07/02 01:54:37;;;;;;;3.08;1.73;;;;;;;;;;5054549;28;20132;-79
2023/07/02 01:57:05;;;;;;;3.42;1.48;;;;;;;;;;5055102;28;20073;-79
2023/07/02 01:59:31;;;;;;;2.65;1.40;;;;;;;;;;5055236;28;20045;-79
2023/07/02 02:01:58;;;;;;;2.75;1.52;;;;;;;;;;5054564;28;20107;-79
2023/07/02 02:04:24;;;;;;;3.58;1.67;;;;;;;;;;5043016;28;20124;-79
2023/07/02 02:06:52;;;;;;;2.70;1.42;;;;;;;;;;5038265;28;20132;-78
2023/07/02 02:09:19;;;;;;;2.45;1.40;;;;;;;;;;5038910;28;20415;-78
2023/07/02 02:11:49;;;;;;;3.00;1.58;;;;;;;;;;5039578;28;20078;-79
2023/07/02 02:14:16;;;;;;;3.25;1.52;;;;;;;;;;5045994;28;20391;-78
2023/07/02 02:16:46;;;;;;;3.03;1.60;;;;;;;;;;5045430;28;20112;-79
2023/07/02 02:19:14;;;;;;;2.95;1.58;;;;;;;;;;5039808;28;20050;-79
2023/07/02 02:21:41;;;;;;;2.17;1.30;;;;;;;;;;5038828;28;20052;-79
2023/07/02 02:24:08;;;;;;;2.38;1.30;;;;;;;;;;5038774;28;20060;-80
2023/07/02 02:26:35;;;;;;;2.20;1.30;;;;;;;;;;5039044;28;20045;-79
2023/07/02 02:29:03;;;;;;;3.33;1.92;;;;;;;;;;5041000;28;20130;-79
2023/07/02 02:31:30;;;;;;;2.53;1.45;;;;;;;;;;5043934;28;20080;-79
2023/07/02 02:33:57;;;;;;;3.00;1.63;;;;;;;;;;5044957;28;20480;-77
2023/07/02 02:36:24;;;;;;;3.85;1.80;;;;;;;;;;5048083;28;20556;-80
2023/07/02 02:38:50;;;;;;;3.50;1.95;;;;;;;;;;5040475;28;20112;-79
2023/07/02 02:41:17;;;;;;;3.47;1.77;;;;;;;;;;5040275;28;20136;-79
2023/07/02 02:43:44;;;;;;;3.03;1.60;;;;;;;;;;5039245;28;20109;-81
2023/07/02 02:46:12;;;;;;;3.35;1.50;;;;;;;;;;5038569;28;20113;-80
2023/07/02 02:48:39;;;;;;;2.65;1.45;;;;;;;;;;5037869;28;20049;-79
2023/07/02 02:51:06;;;;;;;2.45;1.55;;;;;;;;;;5038194;28;20053;-80
2023/07/02 02:53:32;;;;;;;2.63;1.30;;;;;;;;;;5037651;28;20132;-80
2023/07/02 02:55:59;;;;;;;3.83;1.63;;;;;;;;;;5037677;28;20124;-79
2023/07/02 02:58:27;;;;;;;2.78;1.45;;;;;;;;;;5037761;28;20136;-80
2023/07/02 03:00:54;;;;;;;2.83;1.80;;;;;;;;;;5039656;28;20053;-79
2023/07/02 03:03:24;;;;;;;2.05;1.30;;;;;;;;;;5037774;28;20045;-79
2023/07/02 03:05:50;;;;;;;3.20;1.55;;;;;;;;;;5037707;28;20481;-80
2023/07/02 03:08:17;;;;;;;3.10;1.70;;;;;;;;;;5037988;28;20105;-79
2023/07/02 03:10:44;;;;;;;2.60;1.35;;;;;;;;;;5038388;28;20480;-80
2023/07/02 03:13:10;;;;;;;3.70;1.67;;;;;;;;;;5038759;28;20045;-80
2023/07/02 03:15:37;;;;;;;2.83;1.63;;;;;;;;;;5037794;28;20050;-81
2023/07/02 03:18:04;;;;;;;3.53;2.08;;;;;;;;;;5052293;28;20084;-79
2023/07/02 03:20:32;;;;;;;5.07;2.33;;;;;;;;;;5054901;28;20069;-80
2023/07/02 03:22:59;;;;;;;3.65;2.42;;;;;;;;;;5037337;28;20133;-78
2023/07/02 03:25:25;;;;;;;4.00;2.20;;;;;;;;;;5036279;28;20121;-78
2023/07/02 03:27:52;;;;;;;3.95;2.22;;;;;;;;;;5036703;28;20065;-78
2023/07/02 03:30:19;;;;;;;3.67;2.00;;;;;;;;;;5035925;28;20080;-78
2023/07/02 03:32:45;;;;;;;5.38;2.28;;;;;;;;;;5036134;28;20049;-80
2023/07/02 03:35:12;;;;;;;4.80;2.20;;;;;;;;;;5039878;28;20069;-77
2023/07/02 03:37:41;;;;;;;4.18;2.50;;;;;;;;;;5049338;28;20049;-79
2023/07/02 03:40:09;;;;;;;3.83;2.13;;;;;;;;;;5037898;28;20045;-79
2023/07/02 03:42:36;;;;;;;4.10;2.03;;;;;;;;;;5037956;28;20080;-79
2023/07/02 03:45:04;;;;;;;4.00;2.13;;;;;;;;;;5037547;28;20045;-80
2023/07/02 03:47:30;;;;;;;4.85;2.10;;;;;;;;;;5039248;28;20669;-79
2023/07/02 03:49:57;;;;;;;3.22;2.00;;;;;;;;;;5038094;28;20084;-79
2023/07/02 03:52:23;;;;;;;3.78;2.25;;;;;;;;;;5040819;28;20139;-80
2023/07/02 03:54:51;;;;;;;4.43;2.10;;;;;;;;;;5038222;28;20136;-81
2023/07/02 03:57:18;;;;;;;3.97;2.38;;;;;;;;;;5037988;28;20137;-81
2023/07/02 03:59:45;;;;;;;4.93;2.45;;;;;;;;;;5038447;28;20532;-81
2023/07/02 04:02:11;;;;;;;4.43;2.55;;;;;;;;;;5038830;28;20077;-80
2023/07/02 04:04:38;;;;;;;4.68;2.25;;;;;;;;;;5037799;28;20084;-80
2023/07/02 04:07:05;;;;;;;3.95;2.15;;;;;;;;;;5037609;28;20049;-80
2023/07/02 04:09:32;;;;;;;5.45;2.40;;;;;;;;;;5036893;28;20041;-79
2023/07/02 04:12:01;;;;;;;4.32;2.80;;;;;;;;;;5037027;28;20435;-79
2023/07/02 04:14:27;;;;;;;5.70;2.97;;;;;;;;;;5037119;28;20056;-79
2023/07/02 04:16:54;;;;;;;5.38;2.65;;;;;;;;;;5037562;28;20052;-78
2023/07/02 04:19:21;;;;;;;5.75;3.60;;;;;;;;;;5037685;28;20049;-80
2023/07/02 04:21:47;;;;;;;6.03;3.72;;;;;;;;;;5036943;28;20487;-80
2023/07/02 04:24:14;;;;;;;5.82;3.58;;;;;;;;;;5037341;28;20139;-79
2023/07/02 04:26:42;;;;;;;6.57;2.97;;;;;;;;;;5036493;28;20076;-80
2023/07/02 04:29:11;;;;;;;5.15;3.08;;;;;;;;;;5037069;28;20050;-79
2023/07/02 04:31:37;;;;;;;4.40;3.30;;;;;;;;;;5037010;28;20045;-80
2023/07/02 04:34:05;;;;;;;5.32;3.47;;;;;;;;;;5036899;28;20056;-78
2023/07/02 04:36:32;;;;;;;4.88;3.47;;;;;;;;;;5037359;28;20055;-80
2023/07/02 04:38:59;;;;;;;4.10;2.92;;;;;;;;;;5036302;28;20059;-79
2023/07/02 04:41:27;;;;;;;4.97;2.95;;;;;;;;;;5035933;28;20053;-79
2023/07/02 04:43:53;;;;;;;6.55;3.80;;;;;;;;;;5036329;28;20041;-78
2023/07/02 04:46:21;;;;;;;5.53;3.67;;;;;;;;;;5036056;28;20060;-80
2023/07/02 04:48:48;;;;;;;5.47;3.38;;;;;;;;;;5035884;28;20055;-80
2023/07/02 04:51:15;;;;;;;6.28;3.40;;;;;;;;;;5035931;28;20129;-78
2023/07/02 04:53:42;;;;;;;5.90;3.85;;;;;;;;;;5035786;28;20486;-82
2023/07/02 04:56:08;;;;;;;4.15;2.83;;;;;;;;;;5035030;28;20096;-79
2023/07/02 04:58:35;;;;;;;4.90;3.25;;;;;;;;;;5035325;28;20140;-79
2023/07/02 05:01:02;;;;;;;6.22;3.60;;;;;;;;;;5036115;28;20053;-81
2023/07/02 05:03:30;;;;;;;5.05;3.45;;;;;;;;;;5035690;28;20080;-79
2023/07/02 05:05:57;;;;;;;4.45;2.70;;;;;;;;;;5035299;28;20137;-78
2023/07/02 05:08:23;;;;;;;5.25;2.97;;;;;;;;;;5035812;28;20061;-77
2023/07/02 05:10:50;;;;;;;4.82;2.50;;;;;;;;;;5038107;28;20140;-79
2023/07/02 05:13:17;;;;;;;4.03;2.47;;;;;;;;;;5041363;28;20071;-80
2023/07/02 05:15:44;;;;;;;4.20;2.55;;;;;;;;;;5040982;28;20045;-81
2023/07/02 05:18:11;;;;;;;4.75;2.67;;;;;;;;;;5044216;28;20060;-80
2023/07/02 05:20:39;;;;;;;5.68;3.17;;;;;;;;;;5046023;28;20045;-80
2023/07/02 05:23:06;;;;;;;5.80;3.42;;;;;;;;;;5047276;28;20069;-80
2023/07/02 05:25:33;;;;;;;5.28;3.47;;;;;;;;;;5043315;28;20088;-79
2023/07/02 05:28:00;;;;;;;6.53;3.50;;;;;;;;;;5038328;28;20049;-80
2023/07/02 05:30:26;;;;;;;4.57;2.80;;;;;;;;;;5038052;28;20148;-78
2023/07/02 05:32:53;;;;;;;4.50;3.20;;;;;;;;;;5037664;28;20041;-80
2023/07/02 05:35:20;;;;;;;6.35;3.03;;;;;;;;;;5040767;28;20087;-80
2023/07/02 05:37:48;;;;;;;5.57;3.30;;;;;;;;;;5042574;28;20215;-81
2023/07/02 05:40:14;;;;;;;5.72;3.30;;;;;;;;;;5044150;28;20053;-81
2023/07/02 05:42:42;;;;;;;4.43;3.28;;;;;;;;;;5040583;28;20042;-79
2023/07/02 05:45:10;;;;;;;5.07;3.38;;;;;;;;;;5039570;28;20284;-79
2023/07/02 05:47:36;;;;;;;4.93;3.40;;;;;;;;;;5039819;28;20133;-80
2023/07/02 05:50:03;;;;;;;5.78;3.35;;;;;;;;;;5039448;28;20088;-79
2023/07/02 05:52:30;;;;;;;5.03;3.40;;;;;;;;;;5040396;28;20128;-80
2023/07/02 05:54:58;;;;;;;5.38;3.10;;;;;;;;;;5039676;28;20045;-79
2023/07/02 05:57:24;;;;;;;5.07;2.88;;;;;;;;;;5039361;28;20053;-81
2023/07/02 05:59:51;;;;;;;4.95;3.15;;;;;;;;;;5040145;28;20072;-80
2023/07/02 06:02:18;;;;;;;4.78;2.88;;;;;;;;;;5039038;28;20049;-79
2023/07/02 06:04:44;;;;;;;4.78;2.55;;;;;;;;;;5039998;28;20056;-80
2023/07/02 06:07:11;;;;;;;4.88;3.00;;;;;;;;;;5039646;28;20046;-80
2023/07/02 06:09:38;;;;;;;5.15;2.75;;;;;;;;;;5042120;28;20053;-79
2023/07/02 06:12:06;;;;;;;5.05;2.92;;;;;;;;;;5044171;28;20110;-79
2023/07/02 06:14:33;;;;;;;4.70;3.05;;;;;;;;;;5040302;28;20092;-80
2023/07/02 06:17:00;;;;;;;5.20;3.20;;;;;;;;;;5040300;28;20075;-80
2023/07/02 06:19:27;;;;;;;5.93;2.83;;;;;;;;;;5040063;28;20060;-82
2023/07/02 06:21:54;;;;;;;4.20;2.90;;;;;;;;;;5039852;28;20075;-81
2023/07/02 06:24:20;;;;;;;4.68;3.08;;;;;;;;;;5038737;28;20045;-80
2023/07/02 06:26:47;;;;;;;5.70;2.58;;;;;;;;;;5039734;28;20073;-80
2023/07/02 06:29:15;;;;;;;5.80;2.80;;;;;;;;;;5040013;28;20050;-80
2023/07/02 06:31:41;;;;;;;5.43;2.65;;;;;;;;;;5040060;28;20053;-83
2023/07/02 06:34:08;;;;;;;5.35;2.80;;;;;;;;;;5039394;28;20492;-80
2023/07/02 06:36:35;;;;;;;4.55;2.67;;;;;;;;;;5038336;28;20196;-79
2023/07/02 06:39:02;;;;;;;6.28;2.70;;;;;;;;;;5038727;28;20056;-79
2023/07/02 06:41:28;;;;;;;5.47;2.83;;;;;;;;;;5038810;28;20041;-80
2023/07/02 06:43:55;;;;;;;4.75;2.80;;;;;;;;;;5040652;28;20057;-79
2023/07/02 06:46:23;;;;;;;4.47;2.72;;;;;;;;;;5040000;28;20099;-79
2023/07/02 06:48:50;;;;;;;5.35;2.75;;;;;;;;;;5039988;28;20045;-79
2023/07/02 06:51:17;;;;;;;6.05;2.90;;;;;;;;;;5038676;28;20408;-80
2023/07/02 06:53:43;;;;;;;5.35;3.38;;;;;;;;;;5039028;28;20053;-80
2023/07/02 06:56:10;;;;;;;4.70;2.95;;;;;;;;;;5038297;28;20069;-79
2023/07/02 06:58:37;;;;;;;6.25;2.85;;;;;;;;;;5041417;28;20104;-78
2023/07/02 07:01:03;;;;;;;5.30;2.97;;;;;;;;;;5040430;28;20049;-79
2023/07/02 07:03:34;;;;;;;4.57;2.70;;;;;;;;;;5042517;28;20046;-79
2023/07/02 07:06:01;;;;;;;4.90;2.95;;;;;;;;;;5042280;28;20061;-82
2023/07/02 07:08:28;;;;;;;4.95;2.60;;;;;;;;;;5039653;28;20447;-78
2023/07/02 07:10:55;;;;;;;4.40;2.88;;;;;;;;;;5039907;28;20088;-80
2023/07/02 07:13:21;;;;;;;4.63;2.75;;;;;;;;;;5039400;28;20041;-80
2023/07/02 07:15:48;;;;;;;4.20;2.65;;;;;;;;;;5039486;28;20049;-81
2023/07/02 07:18:15;;;;;;;4.20;2.13;;;;;;;;;;5040898;28;20084;-80
2023/07/02 07:20:43;;;;;;;5.47;2.88;;;;;;;;;;5048997;28;20088;-80
2023/07/02 07:23:10;;;;;;;7.63;3.17;;;;;;;;;;5050907;28;20041;-80
2023/07/02 07:25:36;;;;;;;6.40;3.05;;;;;;;;;;5051967;28;20097;-80
2023/07/02 07:28:03;;;;;;;4.72;2.80;;;;;;;;;;5050185;28;20042;-79
2023/07/02 07:30:30;;;;;;;5.07;2.88;;;;;;;;;;5051831;28;20050;-81
2023/07/02 07:32:57;;;;;;;5.53;2.95;;;;;;;;;;5054154;28;20121;-80
2023/07/02 07:35:23;;;;;;;4.80;2.75;;;;;;;;;;5053522;28;20041;-80
2023/07/02 07:37:51;;;;;;;5.18;3.45;;;;;;;;;;5054205;28;20080;-79
2023/07/02 07:40:18;;;;;;;5.05;2.85;;;;;;;;;;5055516;28;20059;-80
2023/07/02 07:42:45;;;;;;;4.28;2.88;;;;;;;;;;5056041;28;20056;-80
2023/07/02 07:45:12;;;;;;;4.72;2.72;;;;;;;;;;5055627;28;20045;-77
2023/07/02 07:47:39;;;;;;;4.75;2.80;;;;;;;;;;5055544;28;20072;-79
2023/07/02 07:50:10;;;;;;;5.72;2.72;;;;;;;;;;5055716;28;20049;-79
2023/07/02 07:52:37;;;;;;;;;;;;;;;;;;5056805;28;20045;-79
2023/07/02 07:55:05;;;;;;;5.32;2.92;;;;;;;;;;5052289;28;19971;-79
2023/07/02 07:57:32;;;;;;;7.65;3.45;;;;;;;;;;5050028;28;20068;-79
2023/07/02 07:59:58;;;;;;;4.93;3.20;;;;;;;;;;5048683;28;20105;-78
2023/07/02 08:02:25;;;;;;;7.20;4.00;;;;;;;;;;5045033;28;20076;-79
2023/07/02 08:04:52;;;;;;;5.03;3.28;;;;;;;;;;5041781;28;20128;-79
2023/07/02 08:07:18;;;;;;;6.35;3.30;;;;;;;;;;5044166;28;20080;-79
2023/07/02 08:09:45;;;;;;;4.43;3.15;;;;;;;;;;5042140;28;20053;-79
2023/07/02 08:12:13;;;;;;;5.22;3.63;;;;;;;;;;5042073;28;20095;-78
2023/07/02 08:14:40;;;;;;;4.88;3.35;;;;;;;;;;5039502;28;20085;-78
2023/07/02 08:17:06;;;;;;;6.00;3.20;;;;;;;;;;5040333;28;20045;-79
2023/07/02 08:19:33;;;;;;;4.93;3.45;;;;;;;;;;5039529;28;20049;-79
2023/07/02 08:22:00;;;;;;;4.90;3.13;;;;;;;;;;5038238;28;20477;-79
2023/07/02 08:24:26;;;;;;;5.15;3.30;;;;;;;;;;5037005;28;20093;-78
2023/07/02 08:26:53;;;;;;;4.85;3.35;;;;;;;;;;5037658;28;20049;-78
2023/07/02 08:29:21;;;;;;;4.40;2.88;;;;;;;;;;5036027;28;20053;-78
2023/07/02 08:31:48;;;;;;;4.22;3.10;;;;;;;;;;5042161;28;20497;-78
2023/07/02 08:34:15;;;;;;;4.57;2.58;;;;;;;;;;5064189;23;20453;-60
2023/07/02 08:36:43;;;;;;;4.95;2.75;;;;;;;;;;5032584;28;20049;-61
2023/07/02 08:39:10;;;;;;;4.00;2.50;;;;;;;;;;5033281;28;20490;-62
2023/07/02 08:41:44;;;;;;;4.57;2.33;;;;;;;;;;5032801;28;20064;-61
2023/07/02 08:44:12;;;;;;;3.90;2.50;;;;;;;;;;5032260;28;20140;-61
2023/07/02 08:46:41;;;;;;;3.58;2.40;;;;;;;;;;5032460;28;20136;-61
2023/07/02 08:49:08;;;;;;;3.88;2.47;;;;;;;;;;5032346;28;20075;-60
2023/07/02 08:51:34;;;;;;;3.85;2.20;;;;;;;;;;5032163;28;20499;-60
2023/07/02 08:54:02;;;;;;;4.32;2.55;;;;;;;;;;5032394;28;20049;-60
2023/07/02 08:56:29;;;;;;;4.07;2.67;;;;;;;;;;5032355;28;20053;-60
2023/07/02 08:58:56;;;;;;;4.72;2.53;;;;;;;;;;5032161;28;20050;-60
2023/07/02 09:01:23;;;;;;;4.40;2.33;;;;;;;;;;5032502;28;20053;-62
2023/07/02 09:03:51;;;;;;;4.05;2.50;;;;;;;;;;5040850;28;20464;-61
2023/07/02 09:06:19;;;;;;;5.28;2.97;;;;;;;;;;5052046;28;20044;-61
2023/07/02 09:08:45;;;;;;;4.90;2.50;;;;;;;;;;5052273;28;20060;-61
2023/07/02 09:11:14;;;;;;;3.85;2.28;;;;;;;;;;5051686;28;20052;-61
2023/07/02 09:13:48;;;;;;;3.80;2.70;;;;;;;;;;5051909;28;20084;-61
2023/07/02 09:16:26;;;;;;;4.85;2.83;;;;;;;;;;5051562;28;20048;-61
2023/07/02 09:19:00;;;;;;;4.32;2.30;;;;;;;;;;5034320;28;20056;-61
2023/07/02 09:21:28;;;;;;;4.85;2.42;;;;;;;;;;5051528;28;20099;-61
2023/07/02 09:23:55;;;;;;;5.10;2.85;;;;;;;;;;5052144;28;20370;-61
2023/07/02 09:26:22;;;;;;;4.18;2.70;;;;;;;;;;5051627;28;20056;-61
2023/07/02 09:28:49;;;;;;;3.95;2.40;;;;;;;;;;5051666;28;20052;-60
2023/07/02 09:31:16;;;;;;;4.38;2.45;;;;;;;;;;5051503;28;20053;-60
2023/07/02 09:33:43;;;;;;;4.45;2.42;;;;;;;;;;5051506;28;20060;-61
2023/07/02 09:36:12;;;;;;;4.50;2.72;;;;;;;;;;5051917;28;20048;-60
2023/07/02 09:38:40;;;;;;;3.92;2.67;;;;;;;;;;5051495;28;20135;-60
2023/07/02 09:41:08;;;;;;;4.32;2.60;;;;;;;;;;5051439;28;20056;-61
2023/07/02 09:43:36;;;;;;;3.78;2.63;;;;;;;;;;5051454;28;20103;-61
2023/07/02 09:46:04;;;;;;;6.45;3.72;;;;;;;;;;5051272;28;20444;-62
2023/07/02 09:48:36;;;;;;;5.38;2.78;;;;;;;;;;5051470;28;20049;-61
2023/07/02 09:51:04;;;;;;;3.97;2.90;;;;;;;;;;5051765;28;20106;-61
2023/07/02 09:53:32;;;;;;;4.47;2.50;;;;;;;;;;5051432;28;20049;-60
2023/07/02 09:55:59;;;;;;;4.68;3.03;;;;;;;;;;5051583;28;20053;-60
2023/07/02 09:58:26;;;;;;;4.70;2.90;;;;;;;;;;5051322;28;20127;-61
2023/07/02 10:00:53;;;;;;;4.68;3.00;;;;;;;;;;5051377;28;20106;-62
2023/07/02 10:03:30;;;;;;;5.25;2.80;;;;;;;;;;5046550;28;20084;-61
2023/07/02 10:06:04;;;;;;;5.10;3.17;;;;;;;;;;5031642;28;20136;-61
2023/07/02 10:08:32;;;;;;;4.75;3.53;;;;;;;;;;5031313;28;20049;-61
2023/07/02 10:11:08;;;;;;;5.47;3.00;;;;;;;;;;5031361;28;20050;-61
2023/07/02 10:13:35;;;;;;;4.93;2.88;;;;;;;;;;5031508;28;20104;-61
2023/07/02 10:16:03;;;;;;;5.28;3.42;;;;;;;;;;5031459;28;20127;-61
2023/07/02 10:18:29;;;;;;;5.38;3.45;;;;;;;;;;5031745;28;20053;-61
2023/07/02 10:20:56;;;;;;;6.28;3.08;;;;;;;;;;5031585;28;20119;-61
2023/07/02 10:23:35;;;;;;;5.47;3.00;;;;;;;;;;5031482;28;20461;-60
2023/07/02 10:26:11;;;;;;;5.50;2.95;;;;;;;;;;5034712;28;20136;-61
2023/07/02 10:28:38;;;;;;;5.40;2.97;;;;;;;;;;5035030;28;20057;-62
2023/07/02 10:31:05;;;;;;;5.45;3.72;;;;;;;;;;5034895;28;20057;-61
2023/07/02 10:33:32;;;;;;;5.85;3.65;;;;;;;;;;5034897;28;20057;-61
2023/07/02 10:35:59;;;;;;;7.05;3.45;;;;;;;;;;5034932;28;20053;-61
2023/07/02 10:38:26;;;;;;;5.88;3.88;;;;;;;;;;5034690;28;20363;-61
2023/07/02 10:40:58;;;;;;;5.57;3.33;;;;;;;;;;5035325;28;20049;-61
2023/07/02 10:43:27;;;;;;;6.78;3.50;;;;;;;;;;5035187;28;20449;-61
2023/07/02 10:45:54;;;;;;;6.63;3.70;;;;;;;;;;5034433;28;20045;-61
2023/07/02 10:48:21;;;;;;;7.80;3.75;;;;;;;;;;5034729;28;20107;-61
2023/07/02 10:50:48;;;;;;;6.20;3.47;;;;;;;;;;5034711;28;20061;-61
2023/07/02 10:53:18;;;;;;;5.45;3.28;;;;;;;;;;5034552;28;20056;-61
2023/07/02 10:55:45;;;;;;;;;;;;;;;;;;5035036;28;20056;-62
2023/07/02 10:58:14;;;;;;;5.55;3.35;;;;;;;;;;5034826;28;19928;-61
2023/07/02 11:00:45;;;;;;;6.68;3.33;;;;;;;;;;5034827;28;20096;-60
2023/07/02 11:03:17;;;;;;;6.97;3.70;;;;;;;;;;5038186;28;20561;-60
2023/07/02 11:05:44;;;;;;;6.22;3.85;;;;;;;;;;5054352;28;20052;-62
2023/07/02 11:08:11;;;;;;;6.43;4.18;;;;;;;;;;5054495;28;20048;-62
2023/07/02 11:10:38;;;;;;;5.75;3.58;;;;;;;;;;5054409;28;20056;-64
2023/07/02 11:13:17;;;;;;;8.65;4.45;;;;;;;;;;5054591;28;20045;-62
2023/07/02 11:15:46;;;;;;;6.53;4.10;;;;;;;;;;5053980;28;20080;-62
2023/07/02 11:18:13;;;;;;;6.53;4.78;;;;;;;;;;5054089;28;20526;-62
2023/07/02 11:20:40;;;;;;;7.18;4.22;;;;;;;;;;5054460;28;20057;-60
2023/07/02 11:23:18;;;;;;;6.72;4.57;;;;;;;;;;5053759;28;20417;-61
2023/07/02 11:25:55;;;;;;;8.60;5.25;;;;;;;;;;5053992;28;20053;-62
2023/07/02 11:28:24;;;;;;;8.50;5.45;;;;;;;;;;5054070;28;20387;-61
2023/07/02 11:30:51;;;;;;;8.55;5.22;;;;;;;;;;5054051;28;20567;-62
2023/07/02 11:33:18;;;;;;;8.45;4.68;;;;;;;;;;5054017;28;20084;-59
2023/07/02 11:35:45;;;;;;;8.05;5.40;;;;;;;;;;5053144;28;20049;-62
2023/07/02 11:38:12;;;;;;;9.75;6.63;;;;;;;;;;5054272;28;20053;-62
2023/07/02 11:40:42;;;;;;;8.68;5.18;;;;;;;;;;5054768;28;20448;-64
2023/07/02 11:43:08;;;;;;;8.38;5.60;;;;;;;;;;5053590;28;20060;-62
2023/07/02 11:45:37;;;;;;;9.55;6.20;;;;;;;;;;5053679;28;20568;-61
2023/07/02 11:48:04;;;;;;;10.73;7.00;;;;;;;;;;5053569;28;20079;-61
2023/07/02 11:50:31;;;;;;;10.60;7.30;;;;;;;;;;5053115;28;20128;-61
2023/07/02 11:52:58;;;;;;;9.65;6.47;;;;;;;;;;5053319;28;20049;-61
2023/07/02 11:55:25;;;;;;;12.18;7.35;;;;;;;;;;5053123;28;20048;-61
2023/07/02 11:57:52;;;;;;;9.80;7.07;;;;;;;;;;5053212;28;20494;-61
2023/07/02 12:00:19;;;;;;;10.50;6.95;;;;;;;;;;5053001;28;20069;-61
2023/07/02 12:02:47;;;;;;;10.15;6.97;;;;;;;;;;5053275;28;20555;-62
2023/07/02 12:05:14;;;;;;;12.68;8.50;;;;;;;;;;5032851;28;20053;-62
2023/07/02 12:07:41;;;;;;;11.35;8.25;;;;;;;;;;5033237;28;20060;-62
2023/07/02 12:10:08;;;;;;;12.65;7.88;;;;;;;;;;5032770;28;20123;-61
2023/07/02 12:12:35;;;;;;;9.68;6.93;;;;;;;;;;5032924;28;20502;-62
2023/07/02 12:15:02;;;;;;;11.00;7.65;;;;;;;;;;5032814;28;20453;-62
2023/07/02 12:17:29;;;;;;;10.38;6.82;;;;;;;;;;5033250;28;20049;-59
2023/07/02 12:19:57;;;;;;;11.88;6.90;;;;;;;;;;5032735;28;20049;-61
2023/07/02 12:22:24;;;;;;;12.35;7.38;;;;;;;;;;5032829;28;20057;-61
2023/07/02 12:24:53;;;;;;;11.40;7.30;;;;;;;;;;5032642;28;20049;-61
2023/07/02 12:27:20;;;;;;;11.07;7.57;;;;;;;;;;5033056;28;20453;-61
2023/07/02 12:29:48;;;;;;;10.70;7.68;;;;;;;;;;5032610;28;20116;-61
2023/07/02 12:32:15;;;;;;;11.40;8.02;;;;;;;;;;5032246;28;20127;-61
2023/07/02 12:34:42;;;;;;;10.90;6.85;;;;;;;;;;5032069;28;20049;-62
2023/07/02 12:37:10;;;;;;;11.77;8.05;;;;;;;;;;5032629;28;20487;-61
2023/07/02 12:39:36;;;;;;;10.52;8.23;;;;;;;;;;5032343;28;20049;-61
2023/07/02 12:42:04;;;;;;;10.15;7.65;;;;;;;;;;5032739;28;20107;-61
2023/07/02 12:44:31;;;;;;;11.48;8.07;;;;;;;;;;5032113;28;20564;-61
2023/07/02 12:46:57;;;;;;;10.93;8.20;;;;;;;;;;5031818;28;20052;-61
2023/07/02 12:49:24;;;;;;;12.38;8.55;;;;;;;;;;5032286;28;20050;-61
2023/07/02 12:51:51;;;;;;;11.00;8.10;;;;;;;;;;5032105;28;20049;-61
2023/07/02 12:54:19;;;;;;;12.13;8.15;;;;;;;;;;5032100;28;20049;-61
2023/07/02 12:56:46;;;;;;;13.30;9.32;;;;;;;;;;5032207;28;20576;-61
2023/07/02 12:59:12;;;;;;;11.18;8.20;;;;;;;;;;5031889;28;20045;-58
2023/07/02 13:01:39;;;;;;;14.05;9.25;;;;;;;;;;5032075;28;20057;-61
2023/07/02 13:04:06;;;;;;;13.65;9.15;;;;;;;;;;5042758;28;20519;-61
2023/07/02 13:06:39;;;;;;;12.23;8.45;;;;;;;;;;5052018;28;20167;-61
2023/07/02 13:09:06;;;;;;;13.30;9.80;;;;;;;;;;5052054;28;20068;-61
2023/07/02 13:11:34;;;;;;;12.52;9.30;;;;;;;;;;5051810;28;20449;-60
2023/07/02 13:14:01;;;;;;;14.32;9.10;;;;;;;;;;5051726;28;20049;-61
2023/07/02 13:16:28;;;;;;;12.38;8.70;;;;;;;;;;5052115;28;20088;-61
2023/07/02 13:18:56;;;;;;;13.13;9.38;;;;;;;;;;5051782;28;20569;-61
2023/07/02 13:21:23;;;;;;;12.05;9.32;;;;;;;;;;5051943;28;20057;-62
2023/07/02 13:23:50;;;;;;;13.70;9.63;;;;;;;;;;5051747;28;20057;-62
2023/07/02 13:26:17;;;;;;;13.35;9.73;;;;;;;;;;5051382;28;20060;-62
2023/07/02 13:28:47;;;;;;;12.82;9.60;;;;;;;;;;5051784;28;20053;-62
2023/07/02 13:31:13;;;;;;;14.57;10.10;;;;;;;;;;5051805;28;20450;-61
2023/07/02 13:33:41;;;;;;;15.70;10.05;;;;;;;;;;5051553;28;20110;-61
2023/07/02 13:36:08;;;;;;;15.23;11.18;;;;;;;;;;5051484;28;20088;-61
2023/07/02 13:38:35;;;;;;;16.05;10.07;;;;;;;;;;5051633;28;20414;-61
2023/07/02 13:41:02;;;;;;;15.07;10.63;;;;;;;;;;5051844;28;20103;-63
2023/07/02 13:43:28;;;;;;;14.00;10.02;;;;;;;;;;5051614;28;20052;-62
2023/07/02 13:45:56;;;;;;;15.02;10.48;;;;;;;;;;5051414;28;20049;-62
2023/07/02 13:48:23;;;;;;;13.55;10.70;;;;;;;;;;5051500;28;20049;-63
2023/07/02 13:50:50;;;;;;;13.95;10.05;;;;;;;;;;5051346;28;20053;-62
2023/07/02 13:53:17;;;;;;;13.50;10.98;;;;;;;;;;5051322;28;20049;-62
2023/07/02 13:55:44;;;;;;;13.35;11.10;;;;;;;;;;5051302;28;20053;-62
2023/07/02 13:58:11;;;;;;;15.05;10.88;;;;;;;;;;5052250;28;20494;-62
2023/07/02 14:00:39;;;;;;;13.63;9.90;;;;;;;;;;5055585;28;20045;-62
2023/07/02 14:03:07;;;;;;;15.13;11.15;;;;;;;;;;5052571;28;20139;-62
2023/07/02 14:05:34;;;;;;;14.15;11.45;;;;;;;;;;5035209;28;20076;-60
2023/07/02 14:08:01;;;;;;;14.60;10.35;;;;;;;;;;5035298;28;20486;-62
2023/07/02 14:10:28;;;;;;;16.02;11.73;;;;;;;;;;5035423;28;20056;-61
2023/07/02 14:12:55;;;;;;;13.95;11.02;;;;;;;;;;5035200;28;20088;-61
2023/07/02 14:15:23;;;;;;;14.13;10.60;;;;;;;;;;5035085;28;20050;-61
2023/07/02 14:17:51;;;;;;;13.52;10.32;;;;;;;;;;5035335;28;20160;-61
2023/07/02 14:20:18;;;;;;;15.52;10.57;;;;;;;;;;5034929;28;20107;-61
2023/07/02 14:22:45;;;;;;;13.70;11.15;;;;;;;;;;5035255;28;20071;-61
2023/07/02 14:25:12;;;;;;;15.45;11.02;;;;;;;;;;5034726;28;20077;-62
2023/07/02 14:27:39;;;;;;;16.92;11.82;;;;;;;;;;5035194;28;20163;-62
2023/07/02 14:30:07;;;;;;;16.25;12.02;;;;;;;;;;5034842;28;20045;-61
2023/07/02 14:32:35;;;;;;;15.45;10.90;;;;;;;;;;5035064;28;20046;-61
2023/07/02 14:35:05;;;;;;;18.13;12.52;;;;;;;;;;5054598;23;20045;-79
2023/07/02 14:37:32;;;;;;;15.63;12.07;;;;;;;;;;5024488;28;20448;-81
2023/07/02 14:39:59;;;;;;;15.55;11.98;;;;;;;;;;5024394;28;20133;-81
2023/07/02 14:42:27;;;;;;;16.58;11.68;;;;;;;;;;5023256;28;20042;-81